Time;durP1;ratioP1;P1;durP2;ratioP2;P2;SDS_P1;SDS_P2;PMS_P1;PMS_P2;Temp;Humidity;BMP_temperature;BMP_pressure;BME280_temperature;BME280_humidity;BME280_pressure;Samples;Min_cycle;Max_cycle;Signal;HPM_P1;HPM_P2
2023/12/29 00:00:40;;;;;;;152.50;82.35;;;;;;;;;;4979043;28;20105;-72
2023/12/29 00:03:06;;;;;;;149.25;79.45;;;;;;;;;;4975280;28;20113;-72
2023/12/29 00:05:31;;;;;;;147.35;81.57;;;;;;;;;;4987485;28;20030;-72
2023/12/29 00:07:57;;;;;;;129.63;72.93;;;;;;;;;;4973749;28;20097;-73
2023/12/29 00:10:23;;;;;;;138.38;75.28;;;;;;;;;;4978458;28;20421;-74
2023/12/29 00:12:49;;;;;;;131.90;66.40;;;;;;;;;;4980238;28;20109;-72
2023/12/29 00:15:18;;;;;;;89.25;49.20;;;;;;;;;;4972799;28;20444;-73
2023/12/29 00:17:44;;;;;;;105.25;47.50;;;;;;;;;;4977436;28;20023;-72
2023/12/29 00:20:10;;;;;;;83.93;45.42;;;;;;;;;;4989188;28;20038;-72
2023/12/29 00:22:36;;;;;;;99.45;47.65;;;;;;;;;;4973873;28;20469;-73
2023/12/29 00:25:02;;;;;;;72.38;40.03;;;;;;;;;;4988869;28;20022;-73
2023/12/29 00:27:28;;;;;;;66.90;35.90;;;;;;;;;;4984173;28;20045;-74
2023/12/29 00:29:54;;;;;;;59.83;34.83;;;;;;;;;;5005314;28;20555;-73
2023/12/29 00:32:20;;;;;;;61.53;36.35;;;;;;;;;;4973815;28;20031;-73
2023/12/29 00:34:46;;;;;;;79.10;45.13;;;;;;;;;;4986100;28;20031;-73
2023/12/29 00:37:11;;;;;;;87.25;45.58;;;;;;;;;;4984033;28;20038;-73
2023/12/29 00:39:40;;;;;;;79.25;44.00;;;;;;;;;;4993249;28;20053;-72
2023/12/29 00:42:06;;;;;;;77.88;38.92;;;;;;;;;;4976582;28;20381;-72
2023/12/29 00:44:33;;;;;;;70.07;38.45;;;;;;;;;;4974084;28;20041;-74
2023/12/29 00:46:59;;;;;;;77.82;38.83;;;;;;;;;;4973590;28;20035;-72
2023/12/29 00:49:26;;;;;;;66.63;42.75;;;;;;;;;;4973161;28;20041;-72
2023/12/29 00:51:53;;;;;;;126.85;53.58;;;;;;;;;;5005545;28;20085;-73
2023/12/29 00:54:19;;;;;;;170.52;82.10;;;;;;;;;;4973782;28;20027;-74
2023/12/29 00:56:51;;;;;;;198.30;98.47;;;;;;;;;;5005599;28;20038;-74
2023/12/29 00:59:19;;;;;;;150.57;75.45;;;;;;;;;;4972866;28;20515;-74
2023/12/29 01:01:45;;;;;;;121.20;60.38;;;;;;;;;;4972714;28;20497;-74
2023/12/29 01:04:12;;;;;;;128.65;61.15;;;;;;;;;;4972528;28;20023;-74
2023/12/29 01:06:37;;;;;;;128.60;59.03;;;;;;;;;;4972239;28;20041;-74
2023/12/29 01:09:03;;;;;;;115.72;54.70;;;;;;;;;;4972627;28;20038;-73
2023/12/29 01:11:29;;;;;;;139.90;64.63;;;;;;;;;;4974039;28;20027;-73
2023/12/29 01:13:56;;;;;;;104.45;57.25;;;;;;;;;;4973644;28;20062;-73
2023/12/29 01:16:21;;;;;;;103.13;51.88;;;;;;;;;;5005017;28;20046;-73
2023/12/29 01:18:47;;;;;;;109.30;52.90;;;;;;;;;;4972070;28;20027;-73
2023/12/29 01:21:13;;;;;;;155.65;57.20;;;;;;;;;;4956058;28;20046;-73
2023/12/29 01:23:38;;;;;;;121.40;52.53;;;;;;;;;;4972206;28;20121;-73
2023/12/29 01:26:04;;;;;;;97.70;48.80;;;;;;;;;;4972376;28;20381;-73
2023/12/29 01:28:30;;;;;;;90.95;46.55;;;;;;;;;;4972720;28;20043;-73
2023/12/29 01:30:56;;;;;;;89.45;49.05;;;;;;;;;;5004692;28;20042;-73
2023/12/29 01:33:21;;;;;;;83.28;45.97;;;;;;;;;;4973759;28;20063;-73
2023/12/29 01:35:47;;;;;;;159.63;51.13;;;;;;;;;;4972046;28;20034;-73
2023/12/29 01:38:14;;;;;;;121.68;54.20;;;;;;;;;;4972274;28;20035;-73
2023/12/29 01:40:46;;;;;;;131.63;65.18;;;;;;;;;;4972192;28;20038;-73
2023/12/29 01:43:13;;;;;;;118.70;59.50;;;;;;;;;;4970757;28;20035;-73
2023/12/29 01:45:39;;;;;;;128.95;64.97;;;;;;;;;;4969809;28;20031;-73
2023/12/29 01:48:06;;;;;;;115.93;59.80;;;;;;;;;;4971890;28;20045;-73
2023/12/29 01:50:32;;;;;;;97.70;52.17;;;;;;;;;;4973534;28;20035;-73
2023/12/29 01:52:58;;;;;;;101.90;53.22;;;;;;;;;;4972210;28;20099;-73
2023/12/29 01:55:26;;;;;;;101.72;54.42;;;;;;;;;;5001938;28;20039;-73
2023/12/29 01:57:52;;;;;;;105.68;56.72;;;;;;;;;;4987899;28;20039;-73
2023/12/29 02:00:19;;;;;;;102.95;52.90;;;;;;;;;;5004369;28;20058;-73
2023/12/29 02:02:46;;;;;;;100.38;51.33;;;;;;;;;;5004819;28;20393;-73
2023/12/29 02:05:17;;;;;;;101.55;50.75;;;;;;;;;;4971902;28;20515;-74
2023/12/29 02:07:44;;;;;;;99.47;49.60;;;;;;;;;;4971940;28;20416;-74
2023/12/29 02:10:13;;;;;;;90.47;49.35;;;;;;;;;;4971577;28;20572;-72
2023/12/29 02:12:39;;;;;;;92.78;50.90;;;;;;;;;;4973179;28;20127;-72
2023/12/29 02:15:06;;;;;;;85.30;46.47;;;;;;;;;;4971683;28;20031;-72
2023/12/29 02:17:38;;;;;;;83.43;45.83;;;;;;;;;;4973079;28;20027;-72
2023/12/29 02:20:05;;;;;;;81.88;45.10;;;;;;;;;;4972029;28;20153;-73
2023/12/29 02:22:30;;;;;;;75.90;38.90;;;;;;;;;;4971741;28;20066;-72
2023/12/29 02:24:56;;;;;;;73.95;39.10;;;;;;;;;;4971489;28;20085;-72
2023/12/29 02:27:57;;;;;;;87.40;41.45;;;;;;;;;;4972016;28;20425;-72
2023/12/29 02:30:34;;;;;;;71.10;39.67;;;;;;;;;;4971871;28;20038;-73
2023/12/29 02:33:03;;;;;;;75.20;39.53;;;;;;;;;;4955591;28;20038;-72
2023/12/29 02:35:32;;;;;;;78.25;41.45;;;;;;;;;;4971293;28;20034;-73
2023/12/29 02:37:58;;;;;;;93.45;44.78;;;;;;;;;;4971472;28;20130;-72
2023/12/29 02:40:25;;;;;;;74.75;39.63;;;;;;;;;;4972767;28;20058;-73
2023/12/29 02:42:51;;;;;;;67.80;37.78;;;;;;;;;;4971356;28;20109;-72
2023/12/29 02:45:17;;;;;;;72.93;41.92;;;;;;;;;;4972651;28;20111;-73
2023/12/29 02:47:43;;;;;;;77.53;41.03;;;;;;;;;;4972873;28;20357;-72
2023/12/29 02:50:10;;;;;;;74.40;42.30;;;;;;;;;;4971470;28;20118;-72
2023/12/29 02:52:37;;;;;;;72.25;43.28;;;;;;;;;;4973055;28;20142;-73
2023/12/29 02:55:03;;;;;;;84.10;43.10;;;;;;;;;;4972280;28;20050;-73
2023/12/29 02:57:29;;;;;;;73.47;42.03;;;;;;;;;;4972963;28;20469;-73
2023/12/29 02:59:56;;;;;;;68.95;38.38;;;;;;;;;;4976582;28;20070;-72
2023/12/29 03:02:22;;;;;;;67.38;35.17;;;;;;;;;;5007565;28;20501;-73
2023/12/29 03:04:48;;;;;;;63.97;34.33;;;;;;;;;;4975082;28;20027;-73
2023/12/29 03:07:14;;;;;;;78.95;35.95;;;;;;;;;;4976574;28;20042;-73
2023/12/29 03:09:39;;;;;;;63.15;34.15;;;;;;;;;;4976397;28;20045;-73
2023/12/29 03:12:06;;;;;;;56.08;31.90;;;;;;;;;;4974896;28;20027;-73
2023/12/29 03:14:32;;;;;;;61.75;32.80;;;;;;;;;;4974388;28;20049;-73
2023/12/29 03:16:59;;;;;;;58.05;33.70;;;;;;;;;;4974979;28;20035;-74
2023/12/29 03:19:24;;;;;;;51.08;31.77;;;;;;;;;;4958878;28;20037;-73
2023/12/29 03:21:50;;;;;;;54.33;33.67;;;;;;;;;;4974899;28;20038;-73
2023/12/29 03:24:16;;;;;;;55.00;30.90;;;;;;;;;;4974335;28;20481;-74
2023/12/29 03:26:42;;;;;;;54.53;32.85;;;;;;;;;;4976031;28;20030;-74
2023/12/29 03:29:08;;;;;;;55.65;33.50;;;;;;;;;;4974879;28;20038;-74
2023/12/29 03:31:34;;;;;;;61.88;34.95;;;;;;;;;;4974775;28;20085;-73
2023/12/29 03:33:59;;;;;;;60.45;33.85;;;;;;;;;;4974456;28;20050;-74
2023/12/29 03:36:25;;;;;;;72.00;39.97;;;;;;;;;;4974733;28;20074;-74
2023/12/29 03:38:51;;;;;;;79.47;41.88;;;;;;;;;;4974111;28;20031;-72
2023/12/29 03:41:17;;;;;;;66.50;39.35;;;;;;;;;;4975667;28;20030;-73
2023/12/29 03:43:42;;;;;;;55.50;32.13;;;;;;;;;;4974266;28;20421;-73
2023/12/29 03:46:21;;;;;;;52.53;32.05;;;;;;;;;;4990486;28;20034;-74
2023/12/29 03:48:47;;;;;;;69.30;37.17;;;;;;;;;;4990561;28;20038;-73
2023/12/29 03:51:13;;;;;;;78.95;40.30;;;;;;;;;;4974301;28;20034;-74
2023/12/29 03:53:39;;;;;;;59.63;34.72;;;;;;;;;;4973768;28;20089;-73
2023/12/29 03:56:09;;;;;;;69.90;37.00;;;;;;;;;;4975414;28;20031;-74
2023/12/29 03:58:35;;;;;;;64.88;35.60;;;;;;;;;;4974120;28;20568;-73
2023/12/29 04:01:02;;;;;;;61.35;34.50;;;;;;;;;;4974112;28;20158;-74
2023/12/29 04:03:27;;;;;;;47.17;31.15;;;;;;;;;;4975119;28;20039;-74
2023/12/29 04:05:53;;;;;;;43.13;27.67;;;;;;;;;;4973722;28;20061;-74
2023/12/29 04:08:19;;;;;;;41.83;25.92;;;;;;;;;;4973836;28;20033;-73
2023/12/29 04:10:44;;;;;;;49.40;28.23;;;;;;;;;;4973909;28;20041;-73
2023/12/29 04:13:10;;;;;;;49.47;26.17;;;;;;;;;;4957879;28;20306;-73
2023/12/29 04:15:36;;;;;;;43.38;28.65;;;;;;;;;;4973786;28;20504;-74
2023/12/29 04:18:02;;;;;;;37.22;25.23;;;;;;;;;;4973527;28;20046;-73
2023/12/29 04:20:28;;;;;;;36.92;24.40;;;;;;;;;;5006167;28;20038;-73
2023/12/29 04:22:55;;;;;;;38.47;23.38;;;;;;;;;;4971719;28;20048;-73
2023/12/29 04:25:20;;;;;;;36.72;22.65;;;;;;;;;;4970512;28;20529;-72
2023/12/29 04:27:46;;;;;;;37.55;22.85;;;;;;;;;;4974233;28;20134;-73
2023/12/29 04:30:12;;;;;;;33.78;22.38;;;;;;;;;;4970392;28;20038;-74
2023/12/29 04:32:37;;;;;;;32.42;21.75;;;;;;;;;;4973289;28;20443;-74
2023/12/29 04:35:03;;;;;;;54.42;22.55;;;;;;;;;;4974356;28;20077;-72
2023/12/29 04:37:30;;;;;;;42.72;22.85;;;;;;;;;;4973508;28;20126;-73
2023/12/29 04:39:56;;;;;;;44.38;21.25;;;;;;;;;;4973398;28;20118;-72
2023/12/29 04:42:22;;;;;;;36.58;20.73;;;;;;;;;;4973458;28;20098;-74
2023/12/29 04:44:48;;;;;;;30.95;19.10;;;;;;;;;;4974269;28;20023;-74
2023/12/29 04:47:13;;;;;;;30.08;19.80;;;;;;;;;;4974321;28;20093;-74
2023/12/29 04:49:39;;;;;;;26.00;18.65;;;;;;;;;;4974193;28;20039;-73
2023/12/29 04:52:05;;;;;;;29.65;19.17;;;;;;;;;;4974886;28;20035;-74
2023/12/29 04:54:30;;;;;;;40.58;21.95;;;;;;;;;;4978449;28;20045;-74
2023/12/29 04:56:56;;;;;;;42.08;23.48;;;;;;;;;;4989952;28;20097;-73
2023/12/29 04:59:22;;;;;;;35.28;22.15;;;;;;;;;;4973969;28;20496;-73
2023/12/29 05:01:49;;;;;;;35.08;21.73;;;;;;;;;;4973914;28;20045;-73
2023/12/29 05:04:16;;;;;;;31.83;21.48;;;;;;;;;;4988358;28;20035;-74
2023/12/29 05:06:42;;;;;;;30.48;19.50;;;;;;;;;;4974428;28;20031;-75
2023/12/29 05:09:08;;;;;;;28.88;18.63;;;;;;;;;;4973731;28;20440;-74
2023/12/29 05:11:33;;;;;;;30.80;19.27;;;;;;;;;;4973925;28;20477;-74
2023/12/29 05:13:59;;;;;;;36.60;20.90;;;;;;;;;;4967791;28;20031;-74
2023/12/29 05:16:25;;;;;;;34.10;21.85;;;;;;;;;;4972525;28;20083;-75
2023/12/29 05:18:50;;;;;;;44.22;25.67;;;;;;;;;;4973808;28;20039;-74
2023/12/29 05:21:19;;;;;;;47.92;24.80;;;;;;;;;;4972732;28;20034;-75
2023/12/29 05:23:46;;;;;;;53.40;25.95;;;;;;;;;;4973360;28;20054;-73
2023/12/29 05:26:12;;;;;;;46.10;23.52;;;;;;;;;;4973544;28;20031;-75
2023/12/29 05:28:37;;;;;;;56.28;28.10;;;;;;;;;;4973827;28;20117;-75
2023/12/29 05:31:04;;;;;;;39.50;23.95;;;;;;;;;;4972143;28;20023;-75
2023/12/29 05:33:30;;;;;;;40.88;24.20;;;;;;;;;;4972704;28;20031;-75
2023/12/29 05:35:56;;;;;;;46.95;24.75;;;;;;;;;;4971910;28;20197;-73
2023/12/29 05:38:22;;;;;;;47.60;24.00;;;;;;;;;;4973535;28;20521;-74
2023/12/29 05:40:48;;;;;;;43.45;25.13;;;;;;;;;;4971860;28;20105;-76
2023/12/29 05:43:15;;;;;;;43.47;25.15;;;;;;;;;;4972947;28;20034;-75
2023/12/29 05:45:41;;;;;;;40.03;25.73;;;;;;;;;;4973004;28;20030;-74
2023/12/29 05:48:07;;;;;;;41.47;25.48;;;;;;;;;;4972856;28;20033;-74
2023/12/29 05:50:32;;;;;;;42.42;26.60;;;;;;;;;;4973054;28;20058;-75
2023/12/29 05:52:58;;;;;;;41.25;25.35;;;;;;;;;;4964858;28;20121;-75
2023/12/29 05:55:24;;;;;;;44.03;25.02;;;;;;;;;;4960504;28;20114;-74
2023/12/29 05:57:50;;;;;;;44.63;25.00;;;;;;;;;;4971856;28;20521;-74
2023/12/29 06:00:16;;;;;;;41.42;25.60;;;;;;;;;;4987934;28;20058;-74
2023/12/29 06:02:42;;;;;;;53.75;24.63;;;;;;;;;;4972651;28;20053;-75
2023/12/29 06:05:12;;;;;;;45.50;23.77;;;;;;;;;;4972431;28;20373;-74
2023/12/29 06:07:38;;;;;;;44.20;24.33;;;;;;;;;;4970762;28;20145;-75
2023/12/29 06:10:06;;;;;;;43.58;23.38;;;;;;;;;;4972420;28;20027;-74
2023/12/29 06:12:31;;;;;;;39.17;22.70;;;;;;;;;;4972825;28;20109;-74
2023/12/29 06:14:57;;;;;;;34.50;24.17;;;;;;;;;;4969734;28;20042;-75
2023/12/29 06:17:23;;;;;;;34.95;23.02;;;;;;;;;;4987456;28;20043;-74
2023/12/29 06:19:48;;;;;;;43.05;25.88;;;;;;;;;;4987683;28;20034;-75
2023/12/29 06:22:15;;;;;;;38.78;24.58;;;;;;;;;;4972336;28;20043;-74
2023/12/29 06:24:42;;;;;;;37.72;24.27;;;;;;;;;;4967329;28;20540;-74
2023/12/29 06:27:09;;;;;;;41.08;21.88;;;;;;;;;;4968249;28;20357;-74
2023/12/29 06:29:35;;;;;;;42.67;22.63;;;;;;;;;;4972313;28;20453;-73
2023/12/29 06:32:01;;;;;;;39.85;22.58;;;;;;;;;;4972882;28;20487;-74
2023/12/29 06:34:27;;;;;;;40.20;22.33;;;;;;;;;;4976200;28;20441;-74
2023/12/29 06:36:53;;;;;;;41.80;23.17;;;;;;;;;;4976178;28;20041;-73
2023/12/29 06:39:19;;;;;;;38.05;21.00;;;;;;;;;;4976175;28;20018;-73
2023/12/29 06:41:44;;;;;;;33.28;20.85;;;;;;;;;;4991176;28;20042;-73
2023/12/29 06:44:10;;;;;;;33.78;21.20;;;;;;;;;;4975249;28;20046;-74
2023/12/29 06:46:39;;;;;;;31.80;20.30;;;;;;;;;;4976309;28;20092;-74
2023/12/29 06:49:07;;;;;;;44.55;22.38;;;;;;;;;;4975732;28;20033;-74
2023/12/29 06:51:34;;;;;;;41.13;21.67;;;;;;;;;;4974658;28;20042;-73
2023/12/29 06:54:00;;;;;;;40.03;22.00;;;;;;;;;;4974730;28;20481;-74
2023/12/29 06:56:27;;;;;;;49.50;27.25;;;;;;;;;;4991264;28;20497;-73
2023/12/29 06:58:52;;;;;;;62.15;29.85;;;;;;;;;;4975691;28;20117;-74
2023/12/29 07:01:18;;;;;;;54.13;29.35;;;;;;;;;;4975758;28;20046;-74
2023/12/29 07:03:45;;;;;;;58.15;29.60;;;;;;;;;;4974849;28;20400;-74
2023/12/29 07:06:11;;;;;;;53.15;30.48;;;;;;;;;;4970187;28;20022;-74
2023/12/29 07:08:37;;;;;;;51.75;28.17;;;;;;;;;;4976198;28;20031;-75
2023/12/29 07:11:03;;;;;;;44.72;26.80;;;;;;;;;;4974305;28;20063;-74
2023/12/29 07:13:28;;;;;;;42.38;25.92;;;;;;;;;;4975225;28;20038;-74
2023/12/29 07:15:56;;;;;;;48.75;26.10;;;;;;;;;;4974891;28;20374;-74
2023/12/29 07:18:22;;;;;;;39.95;25.27;;;;;;;;;;4974720;28;20023;-73
2023/12/29 07:20:47;;;;;;;36.63;23.73;;;;;;;;;;4982056;28;20038;-74
2023/12/29 07:23:13;;;;;;;34.78;20.67;;;;;;;;;;4975146;28;20047;-74
2023/12/29 07:25:39;;;;;;;36.17;19.90;;;;;;;;;;4974943;28;20019;-74
2023/12/29 07:28:04;;;;;;;29.42;18.10;;;;;;;;;;4974731;28;20151;-73
2023/12/29 07:30:30;;;;;;;38.90;21.63;;;;;;;;;;4974721;28;20027;-73
2023/12/29 07:32:56;;;;;;;28.75;19.50;;;;;;;;;;4975037;28;20027;-74
2023/12/29 07:35:22;;;;;;;32.63;21.73;;;;;;;;;;4974479;28;20477;-73
2023/12/29 07:37:47;;;;;;;32.70;21.63;;;;;;;;;;4975391;28;20039;-74
2023/12/29 07:40:15;;;;;;;45.03;25.77;;;;;;;;;;4974787;28;20026;-73
2023/12/29 07:42:40;;;;;;;45.65;27.77;;;;;;;;;;4974372;28;20122;-74
2023/12/29 07:45:09;;;;;;;51.85;28.63;;;;;;;;;;4974699;28;20062;-73
2023/12/29 07:47:35;;;;;;;47.75;27.52;;;;;;;;;;4975257;28;20097;-73
2023/12/29 07:50:01;;;;;;;43.42;25.20;;;;;;;;;;4974959;28;20109;-72
2023/12/29 07:52:27;;;;;;;34.05;21.02;;;;;;;;;;4972566;28;20517;-73
2023/12/29 07:54:53;;;;;;;40.13;25.48;;;;;;;;;;4973806;28;20080;-73
2023/12/29 07:57:18;;;;;;;45.55;26.55;;;;;;;;;;4975880;28;20038;-74
2023/12/29 07:59:44;;;;;;;33.67;23.13;;;;;;;;;;4974845;28;20113;-73
2023/12/29 08:02:10;;;;;;;33.13;19.70;;;;;;;;;;4975527;28;20567;-73
2023/12/29 08:04:35;;;;;;;30.48;19.95;;;;;;;;;;4973752;28;20037;-73
2023/12/29 08:07:01;;;;;;;39.83;20.90;;;;;;;;;;4974195;28;20126;-73
2023/12/29 08:09:27;;;;;;;34.05;20.60;;;;;;;;;;4974111;28;20149;-72
2023/12/29 08:11:53;;;;;;;38.92;22.50;;;;;;;;;;4974901;28;20177;-73
2023/12/29 08:14:19;;;;;;;34.92;23.08;;;;;;;;;;4974190;28;20122;-72
2023/12/29 08:16:44;;;;;;;33.38;20.92;;;;;;;;;;4974383;28;20031;-71
2023/12/29 08:19:10;;;;;;;31.48;22.13;;;;;;;;;;4974314;28;20031;-72
2023/12/29 08:21:36;;;;;;;33.72;21.42;;;;;;;;;;4974186;28;20110;-73
2023/12/29 08:24:02;;;;;;;33.10;21.38;;;;;;;;;;4973560;28;20039;-72
2023/12/29 08:26:29;;;;;;;34.35;21.88;;;;;;;;;;4973345;28;20474;-73
2023/12/29 08:28:54;;;;;;;37.25;22.33;;;;;;;;;;4973850;28;20034;-73
2023/12/29 08:31:22;;;;;;;35.97;22.50;;;;;;;;;;4972506;28;20039;-73
2023/12/29 08:33:48;;;;;;;34.60;22.77;;;;;;;;;;4971939;28;20069;-73
2023/12/29 08:36:18;;;;;;;36.63;22.95;;;;;;;;;;4973569;28;20417;-72
2023/12/29 08:38:44;;;;;;;33.60;22.08;;;;;;;;;;4973406;28;20030;-73
2023/12/29 08:41:13;;;;;;;40.45;25.13;;;;;;;;;;4973481;28;20338;-73
2023/12/29 08:43:38;;;;;;;36.25;24.42;;;;;;;;;;4973864;28;20090;-73
2023/12/29 08:46:05;;;;;;;47.40;26.52;;;;;;;;;;4973297;28;20049;-72
2023/12/29 08:48:30;;;;;;;41.00;26.30;;;;;;;;;;4973531;28;20038;-73
2023/12/29 08:50:56;;;;;;;40.55;27.48;;;;;;;;;;4972009;28;20074;-71
2023/12/29 08:53:22;;;;;;;44.50;26.30;;;;;;;;;;4973615;28;20026;-71
2023/12/29 08:55:47;;;;;;;40.88;27.73;;;;;;;;;;4972163;28;20042;-72
2023/12/29 08:58:13;;;;;;;46.03;27.02;;;;;;;;;;4973406;28;20018;-72
2023/12/29 09:00:39;;;;;;;45.40;27.92;;;;;;;;;;4972296;28;20039;-71
2023/12/29 09:03:05;;;;;;;48.75;29.13;;;;;;;;;;4973189;28;20050;-71
2023/12/29 09:05:31;;;;;;;46.13;27.75;;;;;;;;;;4973323;28;20469;-71
2023/12/29 09:07:57;;;;;;;46.20;27.83;;;;;;;;;;4973903;28;20034;-71
2023/12/29 09:10:22;;;;;;;45.42;27.23;;;;;;;;;;4973631;28;20058;-70
2023/12/29 09:12:49;;;;;;;42.70;27.17;;;;;;;;;;4973831;28;20081;-71
2023/12/29 09:15:15;;;;;;;38.20;26.30;;;;;;;;;;4972174;28;20382;-71
2023/12/29 09:17:41;;;;;;;49.03;27.52;;;;;;;;;;4973085;28;20037;-69
2023/12/29 09:20:07;;;;;;;38.97;25.65;;;;;;;;;;4973775;28;20030;-70
2023/12/29 09:22:34;;;;;;;40.03;24.33;;;;;;;;;;4973447;28;20070;-72
2023/12/29 09:25:00;;;;;;;40.97;24.33;;;;;;;;;;4973541;28;20031;-70
2023/12/29 09:27:26;;;;;;;37.58;22.75;;;;;;;;;;4974306;28;20472;-70
2023/12/29 09:29:52;;;;;;;37.08;23.23;;;;;;;;;;4973113;28;20113;-70
2023/12/29 09:32:18;;;;;;;34.38;21.27;;;;;;;;;;4973324;28;20478;-70
2023/12/29 09:34:46;;;;;;;36.97;22.80;;;;;;;;;;4973158;28;20047;-75
2023/12/29 09:37:12;;;;;;;34.45;20.98;;;;;;;;;;4973355;28;20042;-71
2023/12/29 09:39:38;;;;;;;33.45;21.50;;;;;;;;;;4974010;28;20413;-71
2023/12/29 09:42:05;;;;;;;35.03;21.25;;;;;;;;;;4973002;28;20033;-71
2023/12/29 09:44:31;;;;;;;34.95;21.08;;;;;;;;;;4973639;28;20038;-71
2023/12/29 09:47:02;;;;;;;32.35;21.08;;;;;;;;;;4991139;28;20515;-70
2023/12/29 09:49:39;;;;;;;31.58;21.02;;;;;;;;;;4972917;28;20125;-70
2023/12/29 09:52:10;;;;;;;37.25;21.38;;;;;;;;;;4973248;28;20041;-71
2023/12/29 09:54:37;;;;;;;33.47;21.38;;;;;;;;;;4971195;28;20097;-70
2023/12/29 09:57:05;;;;;;;37.45;20.92;;;;;;;;;;4972649;28;20034;-72
2023/12/29 09:59:36;;;;;;;33.67;20.60;;;;;;;;;;4972747;28;20027;-71
2023/12/29 10:02:04;;;;;;;30.60;20.50;;;;;;;;;;4972600;28;20038;-73
2023/12/29 10:04:30;;;;;;;31.70;19.33;;;;;;;;;;4972480;28;20477;-71
2023/12/29 10:07:00;;;;;;;31.88;20.42;;;;;;;;;;4973958;28;20049;-72
2023/12/29 10:09:29;;;;;;;31.90;19.23;;;;;;;;;;4973209;28;20324;-72
2023/12/29 10:11:56;;;;;;;32.00;19.50;;;;;;;;;;4972485;28;20031;-71
2023/12/29 10:14:46;;;;;;;30.27;19.45;;;;;;;;;;4972258;28;20065;-72
2023/12/29 10:17:30;;;;;;;31.48;19.92;;;;;;;;;;4972880;28;20031;-70
2023/12/29 10:20:10;;;;;;;32.55;20.33;;;;;;;;;;4972054;28;20038;-71
2023/12/29 10:22:54;;;;;;;30.58;20.27;;;;;;;;;;4972560;28;20401;-71
2023/12/29 10:25:23;;;;;;;30.55;20.25;;;;;;;;;;4972440;28;20042;-70
2023/12/29 10:27:48;;;;;;;27.55;17.73;;;;;;;;;;4972550;28;20027;-69
2023/12/29 10:30:15;;;;;;;31.10;19.45;;;;;;;;;;4972345;28;20137;-70
2023/12/29 10:32:41;;;;;;;27.20;17.58;;;;;;;;;;5003286;28;20436;-70
2023/12/29 10:35:10;;;;;;;33.55;20.17;;;;;;;;;;4972039;28;20096;-70
2023/12/29 10:37:37;;;;;;;35.00;20.48;;;;;;;;;;4972327;28;20347;-70
2023/12/29 10:40:04;;;;;;;29.38;19.00;;;;;;;;;;4971648;28;20035;-70
2023/12/29 10:42:30;;;;;;;33.45;19.33;;;;;;;;;;4972428;28;20134;-70
2023/12/29 10:45:10;;;;;;;33.63;20.45;;;;;;;;;;4972163;28;20069;-70
2023/12/29 10:47:35;;;;;;;36.35;20.20;;;;;;;;;;4972605;28;20377;-71
2023/12/29 10:50:04;;;;;;;35.70;21.02;;;;;;;;;;4972454;28;20047;-71
2023/12/29 10:52:32;;;;;;;39.55;20.00;;;;;;;;;;4972651;28;20129;-70
2023/12/29 10:55:11;;;;;;;34.85;19.92;;;;;;;;;;4971782;28;20077;-70
2023/12/29 10:57:37;;;;;;;33.30;20.88;;;;;;;;;;4972350;28;20509;-70
2023/12/29 11:00:05;;;;;;;34.53;21.23;;;;;;;;;;4972232;28;20489;-71
2023/12/29 11:02:32;;;;;;;33.17;20.42;;;;;;;;;;4972335;28;20118;-70
2023/12/29 11:05:10;;;;;;;44.33;21.20;;;;;;;;;;4972488;28;20544;-71
2023/12/29 11:07:39;;;;;;;33.50;21.23;;;;;;;;;;4972268;28;20467;-71
2023/12/29 11:10:07;;;;;;;41.42;21.65;;;;;;;;;;4971807;28;20065;-70
2023/12/29 11:12:35;;;;;;;35.67;21.23;;;;;;;;;;4971943;28;20031;-71
2023/12/29 11:15:06;;;;;;;37.55;22.88;;;;;;;;;;4971577;28;20038;-72
2023/12/29 11:17:35;;;;;;;35.92;22.33;;;;;;;;;;4971659;28;20035;-71
2023/12/29 11:20:03;;;;;;;42.95;23.77;;;;;;;;;;4973794;28;20039;-71
2023/12/29 11:22:32;;;;;;;45.03;24.25;;;;;;;;;;4974800;28;20034;-70
2023/12/29 11:24:59;;;;;;;40.22;25.25;;;;;;;;;;4975238;28;20035;-71
2023/12/29 11:27:31;;;;;;;39.08;24.58;;;;;;;;;;4974708;28;20426;-71
2023/12/29 11:30:01;;;;;;;38.33;25.08;;;;;;;;;;4975162;28;20078;-70
2023/12/29 11:32:48;;;;;;;45.60;26.77;;;;;;;;;;4975526;28;20441;-70
2023/12/29 11:35:28;;;;;;;46.95;28.65;;;;;;;;;;4975288;28;20465;-70
2023/12/29 11:38:00;;;;;;;40.65;27.38;;;;;;;;;;4975517;28;20104;-71
2023/12/29 11:40:34;;;;;;;41.47;28.00;;;;;;;;;;4975394;28;20043;-71
2023/12/29 11:43:06;;;;;;;44.00;27.27;;;;;;;;;;4974939;28;20500;-71
2023/12/29 11:45:37;;;;;;;47.22;27.70;;;;;;;;;;4974762;28;20039;-71
2023/12/29 11:48:03;;;;;;;46.33;28.88;;;;;;;;;;4973363;28;20043;-71
2023/12/29 11:50:33;;;;;;;47.95;28.88;;;;;;;;;;4974572;28;20412;-71
2023/12/29 11:52:59;;;;;;;43.28;26.05;;;;;;;;;;4975327;28;20034;-71
2023/12/29 11:55:37;;;;;;;41.45;26.52;;;;;;;;;;4974719;28;20045;-71
2023/12/29 11:58:07;;;;;;;38.40;24.85;;;;;;;;;;4990319;28;20425;-70
2023/12/29 12:00:46;;;;;;;42.17;27.25;;;;;;;;;;4974954;28;20401;-71
2023/12/29 12:03:31;;;;;;;53.20;28.52;;;;;;;;;;4975356;28;20121;-71
2023/12/29 12:05:58;;;;;;;44.35;27.73;;;;;;;;;;4975016;28;20039;-71
2023/12/29 12:08:31;;;;;;;42.97;27.17;;;;;;;;;;4973488;28;20369;-71
2023/12/29 12:11:18;;;;;;;51.45;28.38;;;;;;;;;;4975130;28;20052;-71
2023/12/29 12:13:47;;;;;;;45.42;28.17;;;;;;;;;;5005692;28;20062;-71
2023/12/29 12:16:47;;;;;;;50.40;29.48;;;;;;;;;;4974415;28;20054;-70
2023/12/29 12:19:35;;;;;;;45.13;26.05;;;;;;;;;;4976704;28;20049;-71
2023/12/29 12:22:02;;;;;;;40.58;25.55;;;;;;;;;;4974633;28;20455;-71
2023/12/29 12:24:28;;;;;;;32.58;21.00;;;;;;;;;;4974317;28;20041;-70
2023/12/29 12:26:56;;;;;;;36.08;21.13;;;;;;;;;;4974549;28;20381;-70
2023/12/29 12:29:23;;;;;;;31.38;19.02;;;;;;;;;;5005824;28;20043;-71
2023/12/29 12:31:58;;;;;;;32.72;20.13;;;;;;;;;;4974630;28;20440;-71
2023/12/29 12:34:23;;;;;;;40.60;21.23;;;;;;;;;;4974873;28;20535;-71
2023/12/29 12:36:51;;;;;;;34.40;20.75;;;;;;;;;;4974713;28;20031;-70
2023/12/29 12:39:17;;;;;;;36.03;21.60;;;;;;;;;;4974350;28;20122;-70
2023/12/29 12:41:43;;;;;;;35.40;21.23;;;;;;;;;;4974741;28;20544;-71
2023/12/29 12:44:10;;;;;;;36.10;22.58;;;;;;;;;;4974538;28;20054;-71
2023/12/29 12:46:41;;;;;;;36.70;21.88;;;;;;;;;;4974928;28;20369;-71
2023/12/29 12:49:07;;;;;;;29.70;17.33;;;;;;;;;;4971282;28;20058;-71
2023/12/29 12:51:33;;;;;;;30.08;18.75;;;;;;;;;;4973929;28;20108;-71
2023/12/29 12:54:00;;;;;;;34.38;17.63;;;;;;;;;;4972956;28;20094;-71
2023/12/29 12:56:30;;;;;;;25.25;15.77;;;;;;;;;;4973829;28;20106;-71
2023/12/29 12:59:02;;;;;;;30.58;17.05;;;;;;;;;;4973972;28;20030;-71
2023/12/29 13:01:28;;;;;;;23.27;16.77;;;;;;;;;;4973828;28;20414;-71
2023/12/29 13:03:55;;;;;;;31.23;17.30;;;;;;;;;;4974233;28;20110;-69
2023/12/29 13:06:22;;;;;;;33.03;18.25;;;;;;;;;;4973534;28;20031;-71
2023/12/29 13:08:51;;;;;;;31.05;17.45;;;;;;;;;;4972150;28;20039;-71
2023/12/29 13:11:25;;;;;;;24.50;14.85;;;;;;;;;;4973801;28;20031;-70
2023/12/29 13:13:56;;;;;;;26.63;15.95;;;;;;;;;;4973153;28;20504;-71
2023/12/29 13:16:33;;;;;;;24.83;15.73;;;;;;;;;;4973478;28;20505;-71
2023/12/29 13:19:18;;;;;;;30.33;15.10;;;;;;;;;;4971854;28;20038;-70
2023/12/29 13:21:54;;;;;;;25.33;15.25;;;;;;;;;;4968825;28;20577;-70
2023/12/29 13:24:25;;;;;;;26.98;16.58;;;;;;;;;;4973041;28;20066;-71
2023/12/29 13:26:54;;;;;;;23.50;15.70;;;;;;;;;;4973630;28;20456;-71
2023/12/29 13:29:25;;;;;;;28.50;15.88;;;;;;;;;;4973679;28;20137;-72
2023/12/29 13:31:53;;;;;;;30.13;17.20;;;;;;;;;;4972900;28;20031;-71
2023/12/29 13:34:46;;;;;;;26.60;14.80;;;;;;;;;;4970069;28;20035;-71
2023/12/29 13:37:34;;;;;;;34.13;16.02;;;;;;;;;;4967732;28;20039;-72
2023/12/29 13:40:09;;;;;;;28.50;14.65;;;;;;;;;;5004291;28;20039;-72
2023/12/29 13:42:37;;;;;;;39.85;17.05;;;;;;;;;;5003766;28;20173;-71
2023/12/29 13:45:05;;;;;;;31.25;16.73;;;;;;;;;;5003048;28;20061;-72
2023/12/29 13:47:32;;;;;;;31.00;16.30;;;;;;;;;;4972686;28;20032;-72
2023/12/29 13:49:58;;;;;;;23.75;15.88;;;;;;;;;;4972662;28;20424;-72
2023/12/29 13:52:24;;;;;;;30.50;16.08;;;;;;;;;;4972132;28;20030;-70
2023/12/29 13:54:50;;;;;;;30.27;18.85;;;;;;;;;;4986204;28;20043;-71
2023/12/29 13:57:15;;;;;;;30.90;17.20;;;;;;;;;;4970656;28;20035;-71
2023/12/29 13:59:41;;;;;;;31.33;17.67;;;;;;;;;;4971234;28;20085;-72
2023/12/29 14:02:22;;;;;;;29.70;17.92;;;;;;;;;;4972595;28;20109;-71
2023/12/29 14:04:48;;;;;;;33.50;17.98;;;;;;;;;;4972485;28;20031;-71
2023/12/29 14:07:14;;;;;;;41.05;21.38;;;;;;;;;;4973066;28;20041;-71
2023/12/29 14:09:40;;;;;;;51.05;26.23;;;;;;;;;;4973126;28;20038;-69
2023/12/29 14:12:07;;;;;;;29.88;18.20;;;;;;;;;;4971225;28;20049;-70
2023/12/29 14:14:32;;;;;;;35.95;19.00;;;;;;;;;;4972359;28;20026;-71
2023/12/29 14:16:59;;;;;;;28.83;16.75;;;;;;;;;;4972487;28;20118;-72
2023/12/29 14:19:24;;;;;;;32.30;17.35;;;;;;;;;;4972841;28;20114;-71